Time;durP1;ratioP1;P1;durP2;ratioP2;P2;SDS_P1;SDS_P2;PMS_P1;PMS_P2;Temp;Humidity;BMP_temperature;BMP_pressure;BME280_temperature;BME280_humidity;BME280_pressure;Samples;Min_cycle;Max_cycle;Signal;HPM_P1;HPM_P2
2022/01/19 00:00:39;;;;;;;3.60;1.40;;;3.60;99.90;;;;;;5115022;28;20443;-72
2022/01/19 00:03:05;;;;;;;2.80;1.50;;;3.50;99.90;;;;;;5114478;28;21213;-72
2022/01/19 00:05:33;;;;;;;4.88;1.60;;;3.40;99.90;;;;;;5115621;28;20458;-72
2022/01/19 00:07:59;;;;;;;2.65;1.80;;;3.40;99.90;;;;;;5116099;28;20790;-73
2022/01/19 00:10:28;;;;;;;4.00;2.50;;;3.40;99.90;;;;;;5115835;28;20905;-72
2022/01/19 00:12:57;;;;;;;3.28;1.80;;;3.50;99.90;;;;;;5116227;28;20877;-73
2022/01/19 00:15:25;;;;;;;3.20;1.30;;;3.40;99.90;;;;;;5115621;28;20465;-72
2022/01/19 00:17:54;;;;;;;5.40;1.70;;;3.40;99.90;;;;;;5115700;28;20833;-72
2022/01/19 00:20:22;;;;;;;3.58;1.77;;;3.40;99.90;;;;;;5115602;28;20836;-72
2022/01/19 00:22:49;;;;;;;3.42;1.83;;;3.30;99.90;;;;;;5116403;28;20428;-72
2022/01/19 00:25:17;;;;;;;3.13;1.60;;;3.40;99.90;;;;;;5115586;28;20459;-72
2022/01/19 00:27:44;;;;;;;3.03;1.80;;;3.40;99.90;;;;;;5116049;28;20848;-72
2022/01/19 00:30:14;;;;;;;3.92;1.90;;;3.50;99.90;;;;;;5115667;28;20486;-72
2022/01/19 00:32:41;;;;;;;3.95;1.50;;;3.50;99.90;;;;;;5115629;28;20497;-71
2022/01/19 00:35:10;;;;;;;3.72;2.15;;;3.60;99.90;;;;;;5115939;28;20470;-72
2022/01/19 00:37:37;;;;;;;3.63;1.90;;;3.50;99.90;;;;;;5115620;28;20427;-72
2022/01/19 00:40:05;;;;;;;3.97;2.07;;;3.50;99.90;;;;;;5115737;28;20516;-72
2022/01/19 00:42:32;;;;;;;2.95;1.70;;;3.50;99.90;;;;;;5115833;28;20448;-73
2022/01/19 00:44:59;;;;;;;2.50;1.80;;;3.50;99.90;;;;;;5115966;28;20700;-72
2022/01/19 00:47:28;;;;;;;3.40;1.70;;;3.60;99.90;;;;;;5115531;28;20470;-72
2022/01/19 00:49:55;;;;;;;3.28;1.80;;;3.50;99.90;;;;;;5115820;28;20459;-73
2022/01/19 00:52:22;;;;;;;3.45;1.77;;;3.40;99.90;;;;;;5115908;28;20431;-72
2022/01/19 00:54:49;;;;;;;4.70;1.50;;;3.30;99.90;;;;;;5115084;28;20783;-73
2022/01/19 00:57:16;;;;;;;3.80;1.80;;;3.30;99.90;;;;;;5115462;28;20787;-72
2022/01/19 00:59:43;;;;;;;4.40;1.60;;;3.20;99.90;;;;;;5114229;28;20926;-72
2022/01/19 01:02:09;;;;;;;2.40;1.30;;;3.20;99.90;;;;;;5114224;28;20428;-72
2022/01/19 01:04:38;;;;;;;4.60;1.88;;;3.10;99.90;;;;;;5115602;28;20440;-72
2022/01/19 01:07:05;;;;;;;5.55;1.80;;;3.10;99.90;;;;;;5115874;28;20851;-73
2022/01/19 01:09:32;;;;;;;3.20;1.60;;;2.90;99.90;;;;;;5115817;28;20432;-72
2022/01/19 01:12:02;;;;;;;3.60;2.10;;;2.90;99.90;;;;;;5115032;28;20507;-72
2022/01/19 01:19:58;;;;;;;3.38;1.50;;;3.00;99.90;;;;;;5115192;28;20399;-72
2022/01/19 01:22:25;;;;;;;3.37;1.30;;;2.90;99.90;;;;;;5115345;28;20780;-71
2022/01/19 01:24:52;;;;;;;3.17;1.55;;;2.80;99.90;;;;;;5113739;28;20450;-72
2022/01/19 01:27:19;;;;;;;3.30;1.40;;;2.70;99.90;;;;;;5114301;28;20444;-71
2022/01/19 01:29:46;;;;;;;4.93;1.67;;;2.80;99.90;;;;;;5114910;28;20432;-72
2022/01/19 01:32:13;;;;;;;2.85;1.48;;;2.70;99.90;;;;;;5115873;28;20420;-72
2022/01/19 01:34:40;;;;;;;3.85;2.05;;;2.60;99.90;;;;;;5115089;28;20735;-72
2022/01/19 01:37:08;;;;;;;3.13;1.60;;;2.60;99.90;;;;;;5113224;28;20946;-72
2022/01/19 01:39:35;;;;;;;2.50;1.40;;;2.60;99.90;;;;;;5114557;28;20756;-72
2022/01/19 01:42:08;;;;;;;2.47;1.40;;;2.50;99.90;;;;;;5115884;28;20428;-73
2022/01/19 01:44:35;;;;;;;3.30;1.70;;;2.50;99.90;;;;;;5116820;28;20720;-73
2022/01/19 01:47:03;;;;;;;3.40;1.52;;;2.40;99.90;;;;;;5115734;28;20491;-73
2022/01/19 01:49:43;;;;;;;5.80;2.40;;;2.40;99.90;;;;;;5116530;28;20498;-72
2022/01/19 01:54:57;;;;;;;3.60;1.60;;;2.30;99.90;;;;;;5114294;28;20869;-72
2022/01/19 01:57:24;;;;;;;3.43;1.70;;;2.30;99.90;;;;;;5115444;28;20427;-73
2022/01/19 01:59:52;;;;;;;2.90;1.52;;;2.30;99.90;;;;;;5115541;28;20408;-74
2022/01/19 02:02:19;;;;;;;3.70;1.70;;;2.30;99.90;;;;;;5115574;28;20428;-73
2022/01/19 02:04:46;;;;;;;4.70;1.98;;;2.30;99.90;;;;;;5115484;28;20470;-72
2022/01/19 02:07:33;;;;;;;6.63;1.85;;;2.40;99.90;;;;;;5117902;28;21137;-73
2022/01/19 02:10:03;;;;;;;4.45;1.75;;;2.40;99.90;;;;;;5118605;27;20435;-72
2022/01/19 02:23:37;;;;;;;4.40;2.00;;;2.50;99.90;;;;;;5117021;28;20712;-73
2022/01/19 02:26:09;;;;;;;4.67;1.70;;;2.50;99.90;;;;;;5117413;28;20515;-73
2022/01/19 02:40:07;;;;;;;3.20;1.90;;;2.70;99.90;;;;;;5117498;28;20451;-72
2022/01/19 02:42:28;;;;;;;3.60;1.95;;;2.80;99.90;;;;;;5117178;28;20407;-73
2022/01/19 02:50:38;;;;;;;3.72;1.70;;;2.70;99.90;;;;;;5095963;28;20418;-72
2022/01/19 02:53:07;;;;;;;3.20;1.50;;;2.80;99.90;;;;;;5112479;27;20424;-72
2022/01/19 02:55:36;;;;;;;4.50;1.60;;;2.70;99.90;;;;;;5118176;28;20899;-73
2022/01/19 02:58:03;;;;;;;4.20;1.50;;;2.70;99.90;;;;;;5117570;28;20436;-73
2022/01/19 03:08:46;;;;;;;3.28;1.90;;;2.50;99.90;;;;;;5117057;28;20919;-73
2022/01/19 03:11:14;;;;;;;3.53;1.70;;;2.40;99.90;;;;;;5116317;28;20432;-72
2022/01/19 03:13:41;;;;;;;4.85;2.22;;;2.20;99.90;;;;;;5116972;28;20870;-72
2022/01/19 03:16:08;;;;;;;2.70;1.60;;;2.10;99.90;;;;;;5116777;28;20451;-73
2022/01/19 03:18:35;;;;;;;3.42;2.00;;;2.00;99.90;;;;;;5116995;28;20459;-73
2022/01/19 03:21:02;;;;;;;5.10;2.30;;;1.90;99.90;;;;;;5117057;28;20469;-73
2022/01/19 03:23:29;;;;;;;4.07;2.20;;;1.90;99.90;;;;;;5117048;27;20428;-73
2022/01/19 03:25:58;;;;;;;3.65;1.95;;;1.80;99.90;;;;;;5117141;28;20409;-73
2022/01/19 03:28:25;;;;;;;3.70;2.40;;;1.80;99.90;;;;;;5116759;28;20823;-73
2022/01/19 03:30:52;;;;;;;4.30;1.90;;;1.70;99.90;;;;;;5117274;28;20459;-73
2022/01/19 03:33:20;;;;;;;4.07;1.63;;;1.70;99.90;;;;;;5116763;28;20420;-73
2022/01/19 03:35:47;;;;;;;3.80;1.83;;;1.70;99.90;;;;;;5116919;28;20471;-73
2022/01/19 03:38:14;;;;;;;4.13;2.00;;;1.60;99.90;;;;;;5116302;28;20412;-72
2022/01/19 03:40:41;;;;;;;5.32;2.47;;;1.60;99.90;;;;;;5116971;28;20439;-73
2022/01/19 03:43:10;;;;;;;2.67;1.92;;;1.70;99.90;;;;;;5116698;28;20496;-72
2022/01/19 03:45:37;;;;;;;5.35;1.92;;;1.80;99.90;;;;;;5116370;28;20420;-72
2022/01/19 03:48:20;;;;;;;4.30;2.03;;;1.90;99.90;;;;;;5116409;28;20420;-72
2022/01/19 03:50:49;;;;;;;3.20;1.47;;;1.90;99.90;;;;;;5116529;28;20469;-72
2022/01/19 03:53:16;;;;;;;5.25;2.00;;;2.00;99.90;;;;;;5116739;28;20477;-72
2022/01/19 03:55:43;;;;;;;3.80;1.70;;;2.00;99.90;;;;;;5116176;28;20731;-72
2022/01/19 03:58:12;;;;;;;3.03;1.80;;;2.00;99.90;;;;;;5116313;28;20412;-73
2022/01/19 04:00:42;;;;;;;5.07;2.17;;;2.00;99.90;;;;;;5116051;27;20459;-73
2022/01/19 04:03:11;;;;;;;5.80;1.98;;;2.10;99.90;;;;;;5116233;28;20417;-73
2022/01/19 04:05:44;;;;;;;4.32;2.10;;;2.10;99.90;;;;;;5116370;28;20425;-73
2022/01/19 04:08:11;;;;;;;3.00;2.30;;;2.10;99.90;;;;;;5116464;28;20508;-73
2022/01/19 04:10:39;;;;;;;3.90;1.80;;;2.10;99.90;;;;;;5115867;27;20428;-73
2022/01/19 04:13:21;;;;;;;3.75;1.92;;;2.10;99.90;;;;;;5116216;28;20422;-73
2022/01/19 04:15:50;;;;;;;2.90;1.90;;;2.20;99.90;;;;;;5116424;28;20455;-73
2022/01/19 04:18:17;;;;;;;3.20;2.05;;;2.30;99.90;;;;;;5115805;28;20473;-73
2022/01/19 04:20:48;;;;;;;5.10;2.30;;;2.30;99.90;;;;;;5115838;28;20535;-73
2022/01/19 04:23:16;;;;;;;3.17;1.57;;;2.30;99.90;;;;;;5116404;28;20465;-73
2022/01/19 04:25:42;;;;;;;2.92;1.70;;;2.20;99.90;;;;;;5116427;28;20455;-73
2022/01/19 04:28:09;;;;;;;5.68;2.10;;;2.00;99.90;;;;;;5115882;28;20440;-73
2022/01/19 04:30:37;;;;;;;3.67;1.60;;;2.00;99.90;;;;;;5115411;28;20722;-73
2022/01/19 04:33:09;;;;;;;6.03;1.87;;;2.00;99.90;;;;;;5116116;28;20538;-72
2022/01/19 04:35:45;;;;;;;5.20;1.50;;;1.90;99.90;;;;;;5115718;28;20424;-73
2022/01/19 04:44:11;;;;;;;5.25;3.00;;;1.80;99.90;;;;;;5114894;28;20459;-73
2022/01/19 05:03:24;;;;;;;6.88;4.20;;;1.30;99.90;;;;;;5115593;28;20442;-73
2022/01/19 05:05:59;;;;;;;6.00;3.50;;;1.30;99.90;;;;;;5115655;28;20532;-73
2022/01/19 05:08:50;;;;;;;6.93;4.10;;;1.30;99.90;;;;;;5115626;28;20416;-73
2022/01/19 05:14:05;;;;;;;7.53;4.10;;;1.20;99.90;;;;;;5113363;28;20419;-73
2022/01/19 05:16:32;;;;;;;8.13;4.38;;;1.20;99.90;;;;;;5113417;28;20443;-73
2022/01/19 05:18:59;;;;;;;9.00;3.42;;;1.30;99.90;;;;;;5113818;28;20416;-72
2022/01/19 05:21:27;;;;;;;7.93;3.65;;;1.20;99.90;;;;;;5113193;28;20909;-72
2022/01/19 05:23:54;;;;;;;7.85;3.45;;;1.30;99.90;;;;;;5114707;28;20444;-73
2022/01/19 05:26:21;;;;;;;9.70;4.13;;;1.30;99.90;;;;;;5115064;28;20509;-73
2022/01/19 05:28:49;;;;;;;5.40;2.80;;;1.30;99.90;;;;;;5114476;28;20416;-73
2022/01/19 05:31:15;;;;;;;5.72;2.65;;;1.30;99.90;;;;;;5114472;28;20467;-73
2022/01/19 05:33:42;;;;;;;8.15;3.30;;;1.40;99.90;;;;;;5113149;28;20931;-73
2022/01/19 05:36:09;;;;;;;7.03;4.07;;;1.40;99.90;;;;;;5112867;28;20424;-73
2022/01/19 05:38:38;;;;;;;4.55;2.50;;;1.40;99.90;;;;;;5113377;28;20467;-73
2022/01/19 05:41:05;;;;;;;6.00;3.60;;;1.40;99.90;;;;;;5116405;28;20476;-73
2022/01/19 05:43:32;;;;;;;5.80;2.97;;;1.50;99.90;;;;;;5118481;28;20416;-73
2022/01/19 05:45:59;;;;;;;4.85;2.10;;;1.40;99.90;;;;;;5118910;28;20448;-73
2022/01/19 05:48:26;;;;;;;5.88;2.65;;;1.50;99.90;;;;;;5118255;28;20517;-74
2022/01/19 05:50:53;;;;;;;4.78;2.60;;;1.50;99.90;;;;;;5116287;28;20809;-73
2022/01/19 05:53:21;;;;;;;5.80;2.75;;;1.50;99.90;;;;;;5117289;28;20420;-74
2022/01/19 05:55:49;;;;;;;5.65;2.83;;;1.50;99.90;;;;;;5117185;28;20750;-73
2022/01/19 05:58:16;;;;;;;4.18;1.98;;;1.40;99.90;;;;;;5115334;28;20466;-73
2022/01/19 06:00:43;;;;;;;3.80;2.00;;;1.30;99.90;;;;;;5114594;28;20428;-73
2022/01/19 06:03:10;;;;;;;6.53;2.63;;;1.20;99.90;;;;;;5116295;28;20461;-72
2022/01/19 06:05:37;;;;;;;5.03;2.17;;;1.20;99.90;;;;;;5115645;28;20848;-73
2022/01/19 06:08:17;;;;;;;4.35;2.40;;;1.10;99.90;;;;;;5115785;28;20688;-72
2022/01/19 06:10:44;;;;;;;5.75;2.95;;;1.10;99.90;;;;;;5116589;28;20432;-72
2022/01/19 06:13:14;;;;;;;6.68;3.25;;;1.00;99.90;;;;;;5118111;28;20451;-72
2022/01/19 06:15:41;;;;;;;4.30;2.13;;;1.20;99.90;;;;;;5117896;28;21492;-72
2022/01/19 06:18:08;;;;;;;4.90;2.50;;;1.10;99.90;;;;;;5117813;28;20416;-72
2022/01/19 06:20:35;;;;;;;4.88;1.90;;;1.10;99.90;;;;;;5117460;28;20854;-72
2022/01/19 06:23:03;;;;;;;6.70;2.70;;;1.00;99.90;;;;;;5116822;28;20424;-72
2022/01/19 06:25:29;;;;;;;7.22;2.55;;;1.00;99.90;;;;;;5115214;28;20444;-71
2022/01/19 06:27:57;;;;;;;5.18;2.53;;;1.00;99.90;;;;;;5117177;28;20763;-72
2022/01/19 06:30:27;;;;;;;5.57;2.90;;;1.00;99.90;;;;;;5116140;28;20461;-72
2022/01/19 06:32:56;;;;;;;4.05;2.25;;;1.30;99.90;;;;;;5116142;28;20432;-72
2022/01/19 06:35:23;;;;;;;7.33;2.80;;;1.40;99.90;;;;;;5116157;28;20416;-71
2022/01/19 06:37:50;;;;;;;5.13;2.60;;;1.40;99.90;;;;;;5116209;28;20839;-72
2022/01/19 06:40:18;;;;;;;5.35;2.33;;;1.30;99.90;;;;;;5116666;28;20739;-72
2022/01/19 06:42:45;;;;;;;4.72;1.90;;;1.40;99.90;;;;;;5114808;27;20427;-72
2022/01/19 06:45:15;;;;;;;5.40;2.30;;;1.90;99.90;;;;;;5112945;28;20832;-73
2022/01/19 06:47:44;;;;;;;4.33;1.83;;;1.90;99.90;;;;;;5114677;27;20791;-72
2022/01/19 06:50:19;;;;;;;4.82;2.00;;;1.90;99.90;;;;;;5114700;28;20507;-72
2022/01/19 06:52:47;;;;;;;4.35;2.30;;;2.00;99.90;;;;;;5113078;28;21141;-72
2022/01/19 06:55:15;;;;;;;5.85;1.90;;;2.00;99.90;;;;;;5112733;28;20419;-72
2022/01/19 06:57:44;;;;;;;4.07;2.58;;;2.20;99.90;;;;;;5114300;28;20743;-71
2022/01/19 07:00:13;;;;;;;3.70;1.80;;;2.10;99.90;;;;;;5114692;28;20420;-72
2022/01/19 07:02:45;;;;;;;3.30;1.70;;;2.00;99.90;;;;;;5116203;28;20417;-72
2022/01/19 07:05:15;;;;;;;4.60;2.50;;;2.00;99.90;;;;;;5096662;28;20418;-72
2022/01/19 07:07:44;;;;;;;4.60;2.25;;;1.90;99.90;;;;;;5108351;28;20432;-73
2022/01/19 07:10:11;;;;;;;5.23;3.00;;;1.90;99.90;;;;;;5116361;28;20577;-72
2022/01/19 07:12:39;;;;;;;5.47;2.60;;;1.90;99.90;;;;;;5112490;28;20424;-72
2022/01/19 07:15:07;;;;;;;6.72;2.35;;;1.70;99.90;;;;;;5110897;28;20424;-72
2022/01/19 07:17:35;;;;;;;4.70;2.10;;;1.60;99.90;;;;;;5111479;28;20424;-72
2022/01/19 07:20:13;;;;;;;4.97;2.40;;;1.60;99.90;;;;;;5113361;28;20452;-73
2022/01/19 07:22:47;;;;;;;4.25;2.10;;;1.50;99.90;;;;;;5111946;28;20511;-73
2022/01/19 07:25:14;;;;;;;7.57;3.00;;;1.40;99.90;;;;;;5112993;28;20424;-73
2022/01/19 07:27:42;;;;;;;5.22;2.30;;;1.40;99.90;;;;;;5113081;28;20507;-73
2022/01/19 07:30:14;;;;;;;4.90;3.17;;;1.50;99.90;;;;;;5114647;28;20493;-73
2022/01/19 07:32:43;;;;;;;6.70;3.40;;;1.50;99.90;;;;;;5115127;27;20428;-73
2022/01/19 07:35:12;;;;;;;7.22;3.10;;;1.50;99.90;;;;;;5113331;28;20788;-73
2022/01/19 07:37:39;;;;;;;5.40;3.00;;;1.40;99.90;;;;;;5112279;28;20420;-73
2022/01/19 07:40:15;;;;;;;4.60;2.78;;;1.60;99.90;;;;;;5113006;28;20934;-73
2022/01/19 07:42:42;;;;;;;5.65;2.33;;;1.90;99.90;;;;;;5113865;28;20433;-73
2022/01/19 07:45:12;;;;;;;6.60;3.10;;;1.90;99.90;;;;;;5110771;28;20451;-73
2022/01/19 07:47:40;;;;;;;6.27;3.30;;;1.60;99.90;;;;;;5112897;28;20470;-73
2022/01/19 07:50:08;;;;;;;5.13;3.05;;;1.40;99.90;;;;;;5112817;28;20424;-74
2022/01/19 07:52:37;;;;;;;4.88;2.60;;;1.40;99.90;;;;;;5114045;28;20424;-73
2022/01/19 07:55:06;;;;;;;6.55;3.42;;;1.40;99.90;;;;;;5114546;28;20448;-73
2022/01/19 07:57:40;;;;;;;5.30;3.05;;;1.40;99.90;;;;;;5113565;28;20416;-73
2022/01/19 08:00:08;;;;;;;6.18;3.05;;;1.40;99.90;;;;;;5113187;28;20899;-74
2022/01/19 08:02:35;;;;;;;6.25;3.13;;;1.40;99.90;;;;;;5113786;28;20939;-74
2022/01/19 08:05:03;;;;;;;5.15;2.88;;;1.40;99.90;;;;;;5112047;28;20465;-74
2022/01/19 08:07:33;;;;;;;9.05;3.53;;;1.70;99.90;;;;;;5114413;28;20424;-74
2022/01/19 08:10:02;;;;;;;6.63;3.83;;;1.80;99.90;;;;;;5113263;28;20452;-75
2022/01/19 08:12:29;;;;;;;5.95;3.58;;;1.70;99.90;;;;;;5113261;28;20459;-73
2022/01/19 08:14:58;;;;;;;6.82;3.50;;;1.60;99.90;;;;;;5114458;28;20473;-75
2022/01/19 08:17:26;;;;;;;7.60;3.72;;;1.50;99.90;;;;;;5115837;28;20424;-73
2022/01/19 08:19:53;;;;;;;7.45;3.80;;;1.60;99.90;;;;;;5113358;28;20811;-74
2022/01/19 08:22:20;;;;;;;7.07;4.20;;;1.50;99.90;;;;;;5107006;28;20485;-74
2022/01/19 08:24:53;;;;;;;7.40;3.93;;;1.50;99.90;;;;;;5109382;28;20471;-74
2022/01/19 08:27:23;;;;;;;8.10;4.30;;;1.50;99.90;;;;;;5112219;28;20588;-74
2022/01/19 08:29:51;;;;;;;7.95;3.63;;;1.70;99.90;;;;;;5110723;28;20423;-74
2022/01/19 08:32:18;;;;;;;6.45;3.40;;;1.70;99.90;;;;;;5113930;28;20555;-75
2022/01/19 08:34:47;;;;;;;8.23;2.97;;;2.20;99.90;;;;;;5112617;28;20464;-75
2022/01/19 08:37:16;;;;;;;9.57;3.78;;;2.70;99.90;;;;;;5113981;28;20421;-75
2022/01/19 08:39:44;;;;;;;4.80;3.10;;;2.70;99.90;;;;;;5113617;28;20424;-75
2022/01/19 08:42:14;;;;;;;8.35;4.05;;;2.90;99.90;;;;;;5113161;28;20416;-75
2022/01/19 08:44:45;;;;;;;8.55;3.72;;;3.00;99.90;;;;;;5112513;28;20432;-75
2022/01/19 08:47:15;;;;;;;8.75;4.30;;;3.20;99.90;;;;;;5113385;28;20432;-75
2022/01/19 08:49:43;;;;;;;4.97;3.38;;;3.00;99.90;;;;;;5113454;28;20428;-74
2022/01/19 08:52:10;;;;;;;6.72;4.15;;;3.00;99.90;;;;;;5114172;28;20493;-75
2022/01/19 08:54:37;;;;;;;8.60;5.03;;;2.90;99.90;;;;;;5113231;28;20828;-74
2022/01/19 08:57:05;;;;;;;8.95;3.70;;;2.70;99.90;;;;;;5114521;28;20774;-77
2022/01/19 08:59:33;;;;;;;8.00;3.97;;;2.80;99.90;;;;;;5113178;28;20441;-74
2022/01/19 09:02:06;;;;;;;6.50;3.85;;;2.90;99.90;;;;;;5114276;28;20974;-73
2022/01/19 09:04:42;;;;;;;7.68;4.00;;;3.00;99.90;;;;;;5112969;28;20718;-74
2022/01/19 09:07:13;;;;;;;6.30;3.83;;;3.00;99.90;;;;;;5112713;28;20420;-73
2022/01/19 09:10:02;;;;;;;6.80;3.35;;;3.00;99.90;;;;;;5112125;28;20510;-73
2022/01/19 09:12:39;;;;;;;5.78;3.45;;;2.90;99.90;;;;;;5108031;28;20428;-74
2022/01/19 09:15:23;;;;;;;8.52;4.20;;;3.10;99.90;;;;;;5115915;28;20458;-74
2022/01/19 09:20:47;;;;;;;8.40;4.65;;;3.10;99.90;;;;;;5107179;28;20882;-73
2022/01/19 09:23:18;;;;;;;7.47;3.65;;;2.90;99.90;;;;;;5115986;28;20445;-73
2022/01/19 09:25:54;;;;;;;5.50;3.40;;;3.00;99.90;;;;;;5116338;28;20514;-73
2022/01/19 09:28:24;;;;;;;6.70;3.40;;;3.60;99.90;;;;;;5115609;28;20432;-74
2022/01/19 09:30:51;;;;;;;6.90;4.13;;;4.10;99.90;;;;;;5115867;28;20477;-74
2022/01/19 09:33:24;;;;;;;7.15;4.22;;;4.00;99.90;;;;;;5116984;28;20430;-72
2022/01/19 09:36:04;;;;;;;6.95;4.43;;;3.90;99.90;;;;;;5117387;28;20420;-73
2022/01/19 09:38:40;;;;;;;7.25;3.67;;;3.90;99.90;;;;;;5115585;28;20533;-73
2022/01/19 09:41:07;;;;;;;5.50;3.20;;;4.10;99.90;;;;;;5117782;28;20477;-73
2022/01/19 09:43:37;;;;;;;5.85;3.60;;;4.10;99.90;;;;;;5118196;28;20436;-73
2022/01/19 09:46:08;;;;;;;7.60;2.92;;;4.00;99.90;;;;;;5117609;28;21035;-72
2022/01/19 09:48:36;;;;;;;5.68;3.35;;;4.40;99.90;;;;;;5117666;28;20436;-73
2022/01/19 09:51:04;;;;;;;6.40;2.90;;;4.30;99.90;;;;;;5116062;28;20448;-74
2022/01/19 09:53:31;;;;;;;5.22;2.60;;;4.40;99.90;;;;;;5115009;28;20489;-73
2022/01/19 09:55:58;;;;;;;4.20;2.55;;;4.40;99.90;;;;;;5115467;28;20420;-74
2022/01/19 09:58:37;;;;;;;5.00;2.83;;;4.40;99.90;;;;;;5117100;27;20848;-74
2022/01/19 10:01:08;;;;;;;5.20;3.33;;;4.40;99.90;;;;;;5117292;28;20941;-74
2022/01/19 10:03:39;;;;;;;4.93;2.53;;;4.40;99.90;;;;;;5114509;28;20443;-73
2022/01/19 10:06:18;;;;;;;7.03;2.72;;;4.40;99.90;;;;;;5116459;28;20917;-73
2022/01/19 10:08:50;;;;;;;5.53;2.90;;;4.60;99.90;;;;;;5115416;28;20485;-74
2022/01/19 10:11:21;;;;;;;4.25;2.28;;;4.80;99.90;;;;;;5115497;28;20416;-73
2022/01/19 10:17:00;;;;;;;6.13;4.15;;;5.00;99.90;;;;;;5114598;28;20399;-71
2022/01/19 10:19:33;;;;;;;7.70;3.10;;;5.00;99.90;;;;;;5116235;28;20432;-72
2022/01/19 10:22:14;;;;;;;5.05;2.60;;;4.90;99.90;;;;;;5117651;28;20431;-73
2022/01/19 10:24:48;;;;;;;4.82;2.92;;;5.60;99.90;;;;;;5117564;28;20420;-71
2022/01/19 10:27:37;;;;;;;3.90;2.33;;;6.60;99.90;;;;;;5114890;28;20424;-71
2022/01/19 10:30:28;;;;;;;7.40;3.22;;;6.80;99.90;;;;;;5116798;28;20420;-72
2022/01/19 10:33:00;;;;;;;4.03;2.60;;;6.30;99.90;;;;;;5118325;28;20432;-74
2022/01/19 10:35:32;;;;;;;7.38;2.90;;;5.90;99.90;;;;;;5118055;28;20416;-73
2022/01/19 10:38:14;;;;;;;9.10;5.82;;;5.50;99.90;;;;;;5117665;28;20424;-73
2022/01/19 10:41:06;;;;;;;7.35;3.92;;;5.20;99.90;;;;;;5116928;28;20914;-75
2022/01/19 10:43:40;;;;;;;6.35;3.38;;;5.20;99.90;;;;;;5115180;28;20521;-76
2022/01/19 10:46:40;;;;;;;5.38;3.28;;;5.40;99.90;;;;;;5115367;28;20517;-75
2022/01/19 10:49:16;;;;;;;5.28;2.97;;;5.20;99.90;;;;;;5116184;28;20426;-76
2022/01/19 10:51:48;;;;;;;5.65;2.70;;;5.40;99.90;;;;;;5113912;28;20428;-76
2022/01/19 10:54:22;;;;;;;6.85;2.85;;;5.40;99.90;;;;;;5115362;28;20419;-77
2022/01/19 10:56:54;;;;;;;6.72;2.97;;;5.50;99.90;;;;;;5114495;28;20428;-76
2022/01/19 10:59:29;;;;;;;5.43;2.30;;;5.40;99.90;;;;;;5116451;28;20424;-77
2022/01/19 11:02:00;;;;;;;6.77;4.00;;;5.50;99.90;;;;;;5116352;28;20436;-76
2022/01/19 11:04:29;;;;;;;5.07;2.92;;;5.50;99.90;;;;;;5116477;28;20416;-74
2022/01/19 11:07:01;;;;;;;5.15;3.17;;;5.50;99.90;;;;;;5114764;28;20493;-75
2022/01/19 11:09:57;;;;;;;6.90;3.50;;;5.50;99.90;;;;;;5115744;28;20857;-76
2022/01/19 11:12:56;;;;;;;5.57;2.17;;;5.50;99.90;;;;;;5110884;28;20493;-75
2022/01/19 11:15:23;;;;;;;5.18;3.15;;;5.60;99.90;;;;;;5115394;28;20481;-72
2022/01/19 11:17:52;;;;;;;3.60;2.40;;;5.60;99.90;;;;;;5116581;28;20704;-73
2022/01/19 11:20:37;;;;;;;4.20;1.92;;;5.50;99.90;;;;;;5112510;28;20420;-76
2022/01/19 11:23:33;;;;;;;5.10;2.60;;;5.60;99.90;;;;;;5113450;28;20448;-76
2022/01/19 11:26:09;;;;;;;5.80;2.50;;;6.10;99.90;;;;;;5114235;28;20420;-75
2022/01/19 11:31:38;;;;;;;3.90;1.70;;;6.30;99.90;;;;;;5109152;28;20400;-77
2022/01/19 11:34:11;;;;;;;5.27;3.03;;;6.50;99.90;;;;;;5108428;28;20432;-75
2022/01/19 11:36:44;;;;;;;4.75;3.33;;;6.70;99.90;;;;;;5114353;28;20428;-75
2022/01/19 11:39:20;;;;;;;6.03;3.13;;;6.90;99.90;;;;;;5113913;28;20526;-76
2022/01/19 11:41:58;;;;;;;8.70;4.40;;;6.90;99.90;;;;;;5100946;28;20815;-75
2022/01/19 11:44:40;;;;;;;5.45;3.08;;;6.80;99.90;;;;;;5107788;28;20816;-77
2022/01/19 11:47:23;;;;;;;5.30;3.10;;;6.60;99.90;;;;;;5114691;28;20931;-76
2022/01/19 11:49:54;;;;;;;6.25;3.38;;;6.80;99.90;;;;;;5114725;28;20459;-76
2022/01/19 11:52:25;;;;;;;6.53;4.10;;;6.90;99.90;;;;;;5112147;28;20914;-76
2022/01/19 11:55:12;;;;;;;9.73;5.10;;;7.00;99.90;;;;;;5112200;28;20440;-77
2022/01/19 11:57:40;;;;;;;6.60;4.03;;;7.10;99.90;;;;;;5102341;28;20473;-76
2022/01/19 12:00:15;;;;;;;5.83;3.90;;;7.10;99.90;;;;;;5114984;28;20450;-76
2022/01/19 12:02:50;;;;;;;4.30;3.03;;;7.10;99.90;;;;;;5112789;28;20927;-71
2022/01/19 12:05:25;;;;;;;6.30;2.75;;;7.10;99.90;;;;;;5111463;28;20441;-73
2022/01/19 12:07:55;;;;;;;3.33;2.70;;;7.30;99.90;;;;;;5091900;28;20490;-71
2022/01/19 12:10:43;;;;;;;5.40;3.13;;;7.50;99.90;;;;;;5108646;28;20436;-72
2022/01/19 12:13:57;;;;;;;4.60;2.13;;;7.20;99.90;;;;;;5111417;28;20424;-71
2022/01/19 12:16:52;;;;;;;4.50;2.70;;;7.20;99.90;;;;;;5113679;28;20424;-72
2022/01/19 12:19:27;;;;;;;3.97;2.40;;;7.20;99.90;;;;;;5113166;28;20435;-72
2022/01/19 12:22:05;;;;;;;4.15;2.97;;;7.50;99.90;;;;;;5113685;28;20424;-72
2022/01/19 12:24:38;;;;;;;3.40;2.50;;;7.10;99.90;;;;;;5113260;28;20453;-72
2022/01/19 12:27:26;;;;;;;4.00;2.50;;;7.00;99.90;;;;;;5112249;27;20459;-72
2022/01/19 12:30:04;;;;;;;3.50;2.03;;;6.80;99.90;;;;;;5111171;28;20535;-72
2022/01/19 12:32:38;;;;;;;4.32;2.40;;;6.80;99.90;;;;;;5113968;28;20428;-71
2022/01/19 12:35:22;;;;;;;4.00;2.22;;;6.70;99.90;;;;;;5113553;28;20477;-71
2022/01/19 12:37:52;;;;;;;3.90;2.10;;;6.80;99.90;;;;;;5111014;28;20428;-71
2022/01/19 12:40:40;;;;;;;3.85;2.10;;;6.80;99.90;;;;;;5113466;28;20462;-72
2022/01/19 12:43:23;;;;;;;5.00;2.53;;;7.00;99.90;;;;;;5113043;28;20418;-71
2022/01/19 12:45:53;;;;;;;3.13;1.87;;;6.90;99.90;;;;;;5108787;28;20428;-71
2022/01/19 12:48:45;;;;;;;5.40;2.40;;;6.80;99.90;;;;;;5112688;28;20454;-72
2022/01/19 12:51:35;;;;;;;5.50;1.80;;;6.70;99.90;;;;;;5111478;28;21135;-72
2022/01/19 12:54:03;;;;;;;6.75;2.40;;;6.80;99.90;;;;;;5108462;28;20797;-74
2022/01/19 12:56:30;;;;;;;4.97;2.00;;;6.80;99.90;;;;;;5114897;28;20481;-71
2022/01/19 12:59:09;;;;;;;6.97;2.10;;;6.90;99.90;;;;;;5114657;28;20416;-73
2022/01/19 13:01:36;;;;;;;12.07;2.40;;;7.10;99.90;;;;;;5111755;28;20920;-73
2022/01/19 13:04:03;;;;;;;4.95;1.80;;;7.30;99.90;;;;;;5112566;28;20473;-73
2022/01/19 13:06:33;;;;;;;4.15;2.30;;;7.50;99.90;;;;;;5111326;28;20747;-73
2022/01/19 13:09:07;;;;;;;5.40;2.03;;;7.40;99.90;;;;;;5113113;28;20485;-73
2022/01/19 13:11:38;;;;;;;4.97;1.83;;;7.30;99.90;;;;;;5112356;28;20427;-73
2022/01/19 13:14:12;;;;;;;3.70;2.20;;;7.40;99.90;;;;;;5111222;28;20527;-72
2022/01/19 13:16:44;;;;;;;3.60;2.20;;;7.20;99.90;;;;;;5106091;28;20409;-73
2022/01/19 13:19:14;;;;;;;5.25;2.85;;;7.10;99.90;;;;;;5097939;28;20852;-72
2022/01/19 13:21:44;;;;;;;5.50;2.70;;;6.90;99.90;;;;;;5107029;28;20807;-72
2022/01/19 13:24:15;;;;;;;3.80;2.10;;;6.70;99.90;;;;;;5111030;28;20424;-72
2022/01/19 13:26:49;;;;;;;2.90;1.88;;;6.60;99.90;;;;;;5110306;28;20423;-72
2022/01/19 13:29:21;;;;;;;4.47;1.90;;;6.50;99.90;;;;;;5112383;28;20524;-72
2022/01/19 13:31:56;;;;;;;3.30;1.95;;;6.50;99.90;;;;;;5106109;28;20459;-72
2022/01/19 13:34:23;;;;;;;3.65;2.08;;;6.30;99.90;;;;;;5108081;28;20475;-73
2022/01/19 13:37:00;;;;;;;5.03;2.50;;;6.20;99.90;;;;;;5112619;28;20838;-72
2022/01/19 13:39:31;;;;;;;5.50;2.20;;;6.20;99.90;;;;;;5113127;28;20424;-73
2022/01/19 13:42:00;;;;;;;3.63;1.95;;;6.10;99.90;;;;;;5107291;28;20856;-73
2022/01/19 13:44:33;;;;;;;4.07;2.00;;;6.10;99.90;;;;;;5113429;28;20495;-72
2022/01/19 13:47:11;;;;;;;4.75;1.92;;;6.00;99.90;;;;;;5112295;28;20469;-73
2022/01/19 13:49:40;;;;;;;4.43;2.20;;;6.10;99.90;;;;;;5110227;28;20870;-73
2022/01/19 13:52:09;;;;;;;5.35;2.08;;;6.00;99.90;;;;;;5109210;28;20701;-72
2022/01/19 13:54:41;;;;;;;4.20;1.80;;;6.00;99.90;;;;;;5111465;28;20457;-73
2022/01/19 13:57:08;;;;;;;4.50;2.35;;;6.20;99.90;;;;;;5111680;28;20408;-73
2022/01/19 13:59:39;;;;;;;3.63;1.90;;;6.20;99.90;;;;;;5109503;28;20448;-73
2022/01/19 14:02:17;;;;;;;3.70;2.10;;;6.30;99.90;;;;;;5108073;28;20859;-72
2022/01/19 14:04:53;;;;;;;3.60;2.13;;;6.40;99.90;;;;;;5116025;28;20835;-74
2022/01/19 14:07:20;;;;;;;3.30;1.80;;;6.50;99.90;;;;;;5115217;28;20420;-72
2022/01/19 14:09:48;;;;;;;6.00;2.00;;;6.50;99.90;;;;;;5114722;28;20432;-73
2022/01/19 14:12:19;;;;;;;2.40;1.30;;;6.50;99.90;;;;;;5114560;28;20536;-73
2022/01/19 14:14:58;;;;;;;4.07;1.80;;;6.60;99.90;;;;;;5115258;28;20467;-72
2022/01/19 14:17:28;;;;;;;4.40;1.60;;;6.70;99.90;;;;;;5113888;28;20723;-73
2022/01/19 14:19:55;;;;;;;2.30;1.10;;;6.60;99.90;;;;;;5114466;28;20438;-73
2022/01/19 14:22:28;;;;;;;2.90;1.25;;;6.70;99.90;;;;;;5114986;28;20454;-73
2022/01/19 14:25:01;;;;;;;2.05;1.20;;;6.80;99.90;;;;;;5115108;28;20542;-73
2022/01/19 14:27:40;;;;;;;2.50;1.40;;;6.70;99.90;;;;;;5114602;28;20416;-75
2022/01/19 14:30:16;;;;;;;2.63;1.00;;;6.60;99.90;;;;;;5115970;28;21021;-75
2022/01/19 14:32:45;;;;;;;1.90;1.00;;;6.70;99.90;;;;;;5115072;28;20731;-74
2022/01/19 14:35:23;;;;;;;1.60;1.00;;;6.70;99.90;;;;;;5114592;28;20762;-75
2022/01/19 14:38:19;;;;;;;1.80;1.10;;;6.80;99.90;;;;;;5114799;28;20429;-74